createdAt,value
2018-04-25T00:00:02.750Z,14.3
2018-04-25T00:05:03.321Z,14.3
2018-04-25T00:10:03.019Z,14.3
2018-04-25T00:15:02.642Z,14.3
2018-04-25T00:20:03.273Z,14.3
2018-04-25T00:25:02.922Z,14.3
2018-04-25T00:30:02.521Z,14.3
2018-04-25T00:35:03.135Z,14.3
2018-04-25T00:40:02.850Z,14.3
2018-04-25T00:45:02.434Z,14.3
2018-04-25T00:50:02.992Z,14.3
2018-04-25T00:55:02.542Z,14.3
2018-04-25T01:00:03.103Z,14.3
2018-04-25T01:05:02.673Z,14.3
2018-04-25T01:10:03.378Z,14.3
2018-04-25T01:15:03.002Z,14.3
2018-04-25T01:20:02.621Z,14.3
2018-04-25T01:25:03.250Z,14.1
2018-04-25T01:30:02.850Z,14.3
2018-04-25T01:35:02.408Z,14.1
2018-04-25T01:40:03.050Z,14.3
2018-04-25T01:45:02.659Z,14.3
2018-04-25T01:50:03.285Z,14.3
2018-04-25T01:55:02.891Z,14.3
2018-04-25T02:00:02.473Z,14.3
2018-04-25T02:05:03.132Z,14.3
2018-04-25T02:10:02.732Z,14.3
2018-04-25T02:15:03.361Z,14.3
2018-04-25T02:20:02.915Z,14.3
2018-04-25T02:25:02.442Z,14.3
2018-04-25T02:30:03.051Z,14.3
2018-04-25T02:35:03.307Z,14.3
2018-04-25T02:40:03.136Z,14.1
2018-04-25T02:45:02.834Z,14.1
2018-04-25T02:50:03.062Z,14.1
2018-04-25T02:55:02.638Z,14.1
2018-04-25T03:00:03.630Z,14.1
2018-04-25T03:05:03.205Z,14.1
2018-04-25T03:10:02.863Z,14.0
2018-04-25T03:15:02.514Z,14.0
2018-04-25T03:20:03.180Z,14.0
2018-04-25T03:25:02.770Z,14.0
2018-04-25T03:30:03.399Z,14.0
2018-04-25T03:35:02.993Z,14.0
2018-04-25T03:40:02.707Z,13.8
2018-04-25T03:45:03.303Z,14.0
2018-04-25T03:50:02.941Z,13.8
2018-04-25T03:55:02.606Z,14.0
2018-04-25T04:00:03.245Z,14.0
2018-04-25T04:05:02.855Z,13.8
2018-04-25T04:10:02.554Z,13.8
2018-04-25T04:15:03.099Z,13.8
2018-04-25T04:20:02.663Z,13.6
2018-04-25T04:25:03.268Z,13.3
2018-04-25T04:30:03.366Z,13.1
2018-04-25T04:35:02.947Z,12.8
2018-04-25T04:40:02.607Z,12.5
2018-04-25T04:45:03.229Z,12.1
2018-04-25T04:50:02.774Z,12.1
2018-04-25T04:55:03.408Z,12.0
2018-04-25T05:00:03.078Z,11.8
2018-04-25T05:05:02.762Z,12.0
2018-04-25T05:10:02.383Z,12.0
2018-04-25T05:15:03.039Z,12.0
2018-04-25T05:20:03.332Z,12.1
2018-04-25T05:25:02.904Z,12.1
2018-04-25T05:30:02.476Z,12.1
2018-04-25T05:35:03.030Z,12.1
2018-04-25T05:40:02.733Z,12.3
2018-04-25T05:45:03.304Z,12.3
2018-04-25T05:50:03.049Z,12.3
2018-04-25T05:55:02.591Z,12.5
2018-04-25T06:00:03.153Z,12.3
2018-04-25T06:05:02.678Z,12.5
2018-04-25T06:10:03.311Z,12.3
2018-04-25T06:15:02.815Z,12.3
2018-04-25T06:20:02.385Z,12.5
2018-04-25T06:25:03.022Z,12.6
2018-04-25T06:30:02.647Z,12.8
2018-04-25T06:35:03.485Z,12.8
2018-04-25T06:40:03.148Z,12.8
2018-04-25T06:45:02.932Z,12.8
2018-04-25T06:50:02.964Z,12.6
2018-04-25T06:55:02.684Z,12.3
2018-04-25T07:00:03.423Z,12.1
2018-04-25T07:05:03.061Z,12.1
2018-04-25T07:10:02.631Z,12.1
2018-04-25T07:15:03.257Z,12.1
2018-04-25T07:20:02.810Z,12.1
2018-04-25T07:25:02.398Z,12.0
2018-04-25T07:30:03.397Z,12.1
2018-04-25T07:35:03.037Z,12.1
2018-04-25T07:40:02.693Z,12.5
2018-04-25T07:45:03.341Z,12.5
2018-04-25T07:50:02.935Z,12.6
2018-04-25T07:55:02.587Z,13.1
2018-04-25T08:00:03.126Z,13.5
2018-04-25T08:05:02.773Z,13.3
2018-04-25T08:10:02.395Z,13.5
2018-04-25T08:15:02.906Z,13.6
2018-04-25T08:20:02.625Z,13.6
2018-04-25T08:25:03.212Z,13.8
2018-04-25T08:30:02.742Z,14.5
2018-04-25T08:35:02.542Z,13.3
2018-04-25T08:40:03.208Z,12.8
2018-04-25T08:45:02.908Z,12.8
2018-04-25T08:50:03.191Z,12.6
2018-04-25T08:55:02.821Z,12.8
2018-04-25T09:00:02.469Z,13.1
2018-04-25T09:05:03.145Z,12.8
2018-04-25T09:10:02.842Z,12.8
2018-04-25T09:15:02.591Z,12.8
2018-04-25T09:20:03.186Z,12.8
2018-04-25T09:25:02.789Z,12.8
2018-04-25T09:30:03.300Z,12.8
2018-04-25T09:35:02.961Z,12.8
2018-04-25T09:40:02.540Z,12.8
2018-04-25T09:45:03.249Z,12.8
2018-04-25T09:50:02.772Z,13.1
2018-04-25T09:55:03.390Z,12.3
2018-04-25T10:00:03.023Z,12.6
2018-04-25T10:05:02.750Z,13.1
2018-04-25T10:10:03.310Z,13.6
2018-04-25T10:15:02.831Z,12.8
2018-04-25T10:20:02.464Z,12.8
2018-04-25T10:25:03.046Z,13.1
2018-04-25T10:30:02.606Z,13.6
2018-04-25T10:35:03.056Z,14.3
2018-04-25T10:40:02.646Z,13.6
2018-04-25T10:45:03.232Z,13.1
2018-04-25T10:50:02.807Z,12.8
2018-04-25T10:55:03.343Z,13.6
2018-04-25T11:00:02.888Z,13.8
2018-04-25T11:05:02.662Z,13.5
2018-04-25T11:10:03.280Z,12.8
2018-04-25T11:15:02.847Z,13.6
2018-04-25T11:20:02.396Z,13.8
2018-04-25T11:25:03.033Z,13.1
2018-04-25T11:30:02.586Z,12.5
2018-04-25T11:35:03.397Z,12.5
2018-04-25T11:40:02.933Z,12.6
2018-04-25T11:45:02.472Z,12.3
2018-04-25T11:50:02.997Z,12.5
2018-04-25T11:55:02.556Z,12.3
2018-04-25T12:00:03.023Z,12.6
2018-04-25T12:05:02.753Z,13.1
2018-04-25T12:10:02.618Z,12.8
2018-04-25T12:15:03.155Z,13.5
2018-04-25T12:20:02.681Z,13.8
2018-04-25T12:25:03.297Z,13.6
2018-04-25T12:30:02.793Z,13.5
2018-04-25T12:35:02.538Z,13.3
2018-04-25T12:40:03.141Z,13.3
2018-04-25T12:45:02.726Z,13.1
2018-04-25T12:50:03.240Z,13.1
2018-04-25T12:55:02.774Z,12.6
2018-04-25T13:00:03.380Z,12.8
2018-04-25T13:05:02.992Z,14.3
2018-04-25T13:10:02.577Z,15.1
2018-04-25T13:15:03.219Z,17.2
2018-04-25T13:20:03.011Z,16.7
2018-04-25T13:25:02.585Z,16.7
2018-04-25T13:30:03.184Z,16.2
2018-04-25T13:35:02.704Z,15.1
2018-04-25T13:40:03.314Z,14.5
2018-04-25T13:45:02.876Z,14.1
2018-04-25T13:50:02.481Z,13.6
2018-04-25T13:55:03.097Z,15.1
2018-04-25T14:00:02.623Z,15.1
2018-04-25T14:05:03.207Z,14.6
2018-04-25T14:10:02.782Z,14.3
2018-04-25T14:15:03.409Z,14.6
2018-04-25T14:20:02.999Z,14.8
2018-04-25T14:25:02.599Z,15.1
2018-04-25T14:30:03.229Z,14.8
2018-04-25T14:35:03.206Z,14.8
2018-04-25T14:40:02.843Z,17.0
2018-04-25T14:45:02.729Z,17.7
2018-04-25T14:50:03.283Z,14.5
2018-04-25T14:55:02.918Z,15.6
2018-04-25T15:00:02.493Z,17.3
2018-04-25T15:05:03.184Z,15.6
2018-04-25T15:10:02.774Z,14.8
2018-04-25T15:15:03.322Z,14.3
2018-04-25T15:20:02.886Z,14.3
2018-04-25T15:25:02.676Z,14.1
2018-04-25T15:30:03.253Z,14.3
2018-04-25T15:35:02.786Z,14.5
2018-04-25T15:40:03.400Z,15.0
2018-04-25T15:45:02.903Z,14.3
2018-04-25T15:50:02.550Z,14.5
2018-04-25T15:55:03.296Z,14.5
2018-04-25T16:00:02.752Z,14.3
2018-04-25T16:05:03.410Z,15.1
2018-04-25T16:10:02.970Z,16.2
2018-04-25T16:15:02.566Z,15.8
2018-04-25T16:20:03.197Z,16.2
2018-04-25T16:25:02.781Z,15.1
2018-04-25T16:30:02.442Z,14.6
2018-04-25T16:35:03.066Z,15.8
2018-04-25T16:40:02.713Z,14.8
2018-04-25T16:45:03.239Z,16.6
2018-04-25T16:50:02.789Z,16.6
2018-04-25T16:55:03.308Z,16.0
2018-04-25T17:00:02.825Z,15.6
2018-04-25T17:05:02.492Z,15.6
2018-04-25T17:10:03.136Z,15.3
2018-04-25T17:15:02.710Z,14.8
2018-04-25T17:20:03.365Z,15.1
2018-04-25T17:25:02.942Z,14.3
2018-04-25T17:30:03.177Z,13.6
2018-04-25T17:35:02.854Z,13.6
2018-04-25T17:40:02.473Z,13.5
2018-04-25T17:45:03.064Z,13.1
2018-04-25T17:50:02.607Z,13.1
2018-04-25T17:55:03.212Z,13.1
2018-04-25T18:00:02.782Z,13.1
2018-04-25T18:05:03.358Z,12.8
2018-04-25T18:10:02.980Z,11.3
2018-04-25T18:15:02.536Z,12.0
2018-04-25T18:20:03.186Z,12.0
2018-04-25T18:25:02.779Z,12.0
2018-04-25T18:30:02.401Z,12.1
2018-04-25T18:35:02.919Z,11.8
2018-04-25T18:40:02.547Z,11.6
2018-04-25T18:45:03.226Z,11.3
2018-04-25T18:50:02.926Z,11.3
2018-04-25T18:55:02.515Z,11.1
2018-04-25T19:00:03.264Z,11.3
2018-04-25T19:05:02.873Z,11.3
2018-04-25T19:10:02.538Z,11.3
2018-04-25T19:15:02.537Z,11.1
2018-04-25T19:20:03.191Z,11.1
2018-04-25T19:25:02.687Z,11.1
2018-04-25T19:30:03.251Z,11.3
2018-04-25T19:35:02.864Z,11.1
2018-04-25T19:40:02.515Z,11.1
2018-04-25T19:45:03.078Z,11.3
2018-04-25T19:50:02.637Z,11.3
2018-04-25T19:55:02.532Z,11.3
2018-04-25T20:00:03.269Z,11.3
2018-04-25T20:05:02.845Z,11.3
2018-04-25T20:10:02.443Z,11.1
2018-04-25T20:15:03.019Z,11.1
2018-04-25T20:20:02.593Z,11.1
2018-04-25T20:25:02.379Z,11.1
2018-04-25T20:30:02.928Z,11.0
2018-04-25T20:35:02.535Z,10.8
2018-04-25T20:40:03.128Z,10.8
2018-04-25T20:45:02.848Z,10.8
2018-04-25T20:50:02.643Z,10.8
2018-04-25T20:55:03.258Z,10.5
2018-04-25T21:00:02.765Z,10.3
2018-04-25T21:05:03.354Z,10.1
2018-04-25T21:10:02.964Z,10.1
2018-04-25T21:15:02.531Z,9.8
2018-04-25T21:20:03.104Z,9.8
2018-04-25T21:25:02.704Z,10.0
2018-04-25T21:30:03.271Z,9.6
2018-04-25T21:35:02.828Z,9.6
2018-04-25T21:40:02.504Z,9.6
2018-04-25T21:45:03.071Z,9.6
2018-04-25T21:50:02.595Z,9.8
2018-04-25T21:55:03.223Z,9.6
2018-04-25T22:00:02.803Z,9.6
2018-04-25T22:05:02.473Z,9.6
2018-04-25T22:10:03.094Z,9.6
2018-04-25T22:15:02.736Z,10.0
2018-04-25T22:20:02.425Z,10.0
2018-04-25T22:25:03.023Z,10.0
2018-04-25T22:30:02.591Z,10.1
2018-04-25T22:35:03.134Z,10.1
2018-04-25T22:40:02.829Z,10.1
2018-04-25T22:45:02.439Z,10.1
2018-04-25T22:50:03.030Z,10.1
2018-04-25T22:55:02.608Z,10.1
2018-04-25T23:00:03.095Z,10.1
2018-04-25T23:05:03.320Z,10.1
2018-04-25T23:10:03.102Z,10.1
2018-04-25T23:15:02.724Z,10.1
2018-04-25T23:20:03.378Z,10.1
2018-04-25T23:25:03.018Z,10.1
2018-04-25T23:30:02.989Z,10.1
2018-04-25T23:35:02.558Z,10.1
2018-04-25T23:40:03.237Z,10.1
2018-04-25T23:45:02.784Z,10.1
2018-04-25T23:50:03.393Z,10.1
2018-04-25T23:55:02.877Z,10.1
